sensor_id;sensor_type;location;lat;lon;timestamp;P1;durP1;ratioP1;P2;durP2;ratioP2
31043;SDS011;17710;52.520;13.352;2024-02-15T00:01:17;7.30;;;4.55;;
31043;SDS011;17710;52.520;13.352;2024-02-15T00:03:44;7.57;;;4.60;;
31043;SDS011;17710;52.520;13.352;2024-02-15T00:06:11;5.97;;;4.32;;
31043;SDS011;17710;52.520;13.352;2024-02-15T00:08:37;7.43;;;4.05;;
31043;SDS011;17710;52.520;13.352;2024-02-15T00:11:04;6.03;;;4.40;;
31043;SDS011;17710;52.520;13.352;2024-02-15T00:13:30;8.27;;;4.63;;
31043;SDS011;17710;52.520;13.352;2024-02-15T00:15:58;8.63;;;4.35;;
31043;SDS011;17710;52.520;13.352;2024-02-15T00:18:25;8.65;;;4.15;;
31043;SDS011;17710;52.520;13.352;2024-02-15T00:20:53;13.35;;;6.97;;
31043;SDS011;17710;52.520;13.352;2024-02-15T00:23:19;8.38;;;4.30;;
31043;SDS011;17710;52.520;13.352;2024-02-15T00:25:46;6.45;;;4.88;;
31043;SDS011;17710;52.520;13.352;2024-02-15T00:28:12;5.40;;;4.20;;
31043;SDS011;17710;52.520;13.352;2024-02-15T00:30:39;9.45;;;4.60;;
31043;SDS011;17710;52.520;13.352;2024-02-15T00:33:05;5.72;;;4.50;;
31043;SDS011;17710;52.520;13.352;2024-02-15T00:35:32;7.28;;;4.40;;
31043;SDS011;17710;52.520;13.352;2024-02-15T00:38:00;8.13;;;4.68;;
31043;SDS011;17710;52.520;13.352;2024-02-15T00:40:28;5.65;;;4.55;;
31043;SDS011;17710;52.520;13.352;2024-02-15T00:42:54;6.32;;;4.70;;
31043;SDS011;17710;52.520;13.352;2024-02-15T00:45:20;10.43;;;4.63;;
31043;SDS011;17710;52.520;13.352;2024-02-15T00:47:47;5.80;;;4.53;;
31043;SDS011;17710;52.520;13.352;2024-02-15T00:50:13;6.07;;;4.60;;
31043;SDS011;17710;52.520;13.352;2024-02-15T00:52:39;6.75;;;4.97;;
31043;SDS011;17710;52.520;13.352;2024-02-15T00:55:07;6.28;;;4.50;;
31043;SDS011;17710;52.520;13.352;2024-02-15T00:57:34;8.38;;;4.78;;
31043;SDS011;17710;52.520;13.352;2024-02-15T01:00:00;8.70;;;5.35;;
31043;SDS011;17710;52.520;13.352;2024-02-15T01:02:28;9.45;;;5.60;;
31043;SDS011;17710;52.520;13.352;2024-02-15T01:04:55;7.55;;;5.15;;
31043;SDS011;17710;52.520;13.352;2024-02-15T01:07:23;9.07;;;5.50;;
31043;SDS011;17710;52.520;13.352;2024-02-15T01:09:52;7.80;;;5.90;;
31043;SDS011;17710;52.520;13.352;2024-02-15T01:12:20;10.35;;;6.07;;
31043;SDS011;17710;52.520;13.352;2024-02-15T01:14:46;11.88;;;6.70;;
31043;SDS011;17710;52.520;13.352;2024-02-15T01:17:13;11.30;;;6.50;;
31043;SDS011;17710;52.520;13.352;2024-02-15T01:19:40;8.73;;;6.53;;
31043;SDS011;17710;52.520;13.352;2024-02-15T01:22:07;8.95;;;6.47;;
31043;SDS011;17710;52.520;13.352;2024-02-15T01:24:34;10.20;;;6.97;;
31043;SDS011;17710;52.520;13.352;2024-02-15T01:27:00;9.77;;;7.25;;
31043;SDS011;17710;52.520;13.352;2024-02-15T01:29:28;10.13;;;6.72;;
31043;SDS011;17710;52.520;13.352;2024-02-15T01:31:54;10.57;;;7.40;;
31043;SDS011;17710;52.520;13.352;2024-02-15T01:34:21;10.55;;;7.25;;
31043;SDS011;17710;52.520;13.352;2024-02-15T01:36:47;11.13;;;8.18;;
31043;SDS011;17710;52.520;13.352;2024-02-15T01:39:14;11.35;;;7.70;;
31043;SDS011;17710;52.520;13.352;2024-02-15T01:41:40;10.13;;;7.55;;
31043;SDS011;17710;52.520;13.352;2024-02-15T01:44:10;8.52;;;7.55;;
31043;SDS011;17710;52.520;13.352;2024-02-15T01:46:38;11.00;;;7.93;;
31043;SDS011;17710;52.520;13.352;2024-02-15T01:49:05;11.15;;;7.85;;
31043;SDS011;17710;52.520;13.352;2024-02-15T01:51:32;11.10;;;8.43;;
31043;SDS011;17710;52.520;13.352;2024-02-15T01:54:00;10.90;;;8.10;;
31043;SDS011;17710;52.520;13.352;2024-02-15T01:56:27;13.60;;;8.75;;
31043;SDS011;17710;52.520;13.352;2024-02-15T01:58:55;11.30;;;8.10;;
31043;SDS011;17710;52.520;13.352;2024-02-15T02:01:22;10.30;;;8.20;;
31043;SDS011;17710;52.520;13.352;2024-02-15T02:03:50;13.60;;;8.40;;
31043;SDS011;17710;52.520;13.352;2024-02-15T02:06:16;12.90;;;8.68;;
31043;SDS011;17710;52.520;13.352;2024-02-15T02:08:43;10.88;;;9.30;;
31043;SDS011;17710;52.520;13.352;2024-02-15T02:11:09;11.48;;;9.20;;
31043;SDS011;17710;52.520;13.352;2024-02-15T02:13:36;13.52;;;8.80;;
31043;SDS011;17710;52.520;13.352;2024-02-15T02:16:02;11.98;;;8.80;;
31043;SDS011;17710;52.520;13.352;2024-02-15T02:18:29;12.95;;;9.40;;
31043;SDS011;17710;52.520;13.352;2024-02-15T02:20:57;13.75;;;9.18;;
31043;SDS011;17710;52.520;13.352;2024-02-15T02:23:25;11.95;;;9.38;;
31043;SDS011;17710;52.520;13.352;2024-02-15T02:25:56;12.57;;;10.25;;
31043;SDS011;17710;52.520;13.352;2024-02-15T02:28:23;13.18;;;9.55;;
31043;SDS011;17710;52.520;13.352;2024-02-15T02:30:49;15.23;;;10.57;;
31043;SDS011;17710;52.520;13.352;2024-02-15T02:33:16;13.45;;;10.10;;
31043;SDS011;17710;52.520;13.352;2024-02-15T02:35:44;12.60;;;9.63;;
31043;SDS011;17710;52.520;13.352;2024-02-15T02:38:11;14.45;;;10.25;;
31043;SDS011;17710;52.520;13.352;2024-02-15T02:40:38;13.57;;;9.90;;
31043;SDS011;17710;52.520;13.352;2024-02-15T02:43:06;13.25;;;9.90;;
31043;SDS011;17710;52.520;13.352;2024-02-15T02:45:32;10.48;;;9.10;;
31043;SDS011;17710;52.520;13.352;2024-02-15T02:47:59;16.55;;;10.32;;
31043;SDS011;17710;52.520;13.352;2024-02-15T02:50:25;14.10;;;11.23;;
31043;SDS011;17710;52.520;13.352;2024-02-15T02:52:52;13.60;;;9.77;;
31043;SDS011;17710;52.520;13.352;2024-02-15T02:55:19;13.48;;;10.23;;
31043;SDS011;17710;52.520;13.352;2024-02-15T02:57:45;14.43;;;10.43;;
31043;SDS011;17710;52.520;13.352;2024-02-15T03:00:14;14.38;;;10.57;;
31043;SDS011;17710;52.520;13.352;2024-02-15T03:02:41;12.55;;;9.60;;
31043;SDS011;17710;52.520;13.352;2024-02-15T03:05:08;12.30;;;9.60;;
31043;SDS011;17710;52.520;13.352;2024-02-15T03:07:36;14.18;;;10.45;;
31043;SDS011;17710;52.520;13.352;2024-02-15T03:10:05;13.40;;;10.23;;
31043;SDS011;17710;52.520;13.352;2024-02-15T03:12:33;15.50;;;11.13;;
31043;SDS011;17710;52.520;13.352;2024-02-15T03:15:00;14.18;;;10.68;;
31043;SDS011;17710;52.520;13.352;2024-02-15T03:17:28;16.05;;;10.68;;
31043;SDS011;17710;52.520;13.352;2024-02-15T03:19:56;13.70;;;11.45;;
31043;SDS011;17710;52.520;13.352;2024-02-15T03:22:23;14.35;;;9.88;;
31043;SDS011;17710;52.520;13.352;2024-02-15T03:24:50;12.85;;;10.55;;
31043;SDS011;17710;52.520;13.352;2024-02-15T03:27:17;15.50;;;10.32;;
31043;SDS011;17710;52.520;13.352;2024-02-15T03:29:43;12.45;;;10.80;;
31043;SDS011;17710;52.520;13.352;2024-02-15T03:32:10;15.63;;;10.30;;
31043;SDS011;17710;52.520;13.352;2024-02-15T03:34:37;14.40;;;10.45;;
31043;SDS011;17710;52.520;13.352;2024-02-15T03:37:04;14.32;;;10.60;;
31043;SDS011;17710;52.520;13.352;2024-02-15T03:39:31;14.80;;;10.20;;
31043;SDS011;17710;52.520;13.352;2024-02-15T03:41:58;13.48;;;10.00;;
31043;SDS011;17710;52.520;13.352;2024-02-15T03:44:25;11.73;;;9.45;;
31043;SDS011;17710;52.520;13.352;2024-02-15T03:46:51;12.65;;;10.02;;
31043;SDS011;17710;52.520;13.352;2024-02-15T03:49:18;12.05;;;9.93;;
31043;SDS011;17710;52.520;13.352;2024-02-15T03:51:47;13.75;;;9.68;;
31043;SDS011;17710;52.520;13.352;2024-02-15T03:54:14;12.07;;;10.52;;
31043;SDS011;17710;52.520;13.352;2024-02-15T03:56:46;12.85;;;10.38;;
31043;SDS011;17710;52.520;13.352;2024-02-15T03:59:15;14.57;;;10.73;;
31043;SDS011;17710;52.520;13.352;2024-02-15T04:01:41;13.82;;;11.68;;
31043;SDS011;17710;52.520;13.352;2024-02-15T04:04:07;14.35;;;10.35;;
31043;SDS011;17710;52.520;13.352;2024-02-15T04:06:34;13.38;;;10.93;;
31043;SDS011;17710;52.520;13.352;2024-02-15T04:09:02;15.35;;;10.52;;
31043;SDS011;17710;52.520;13.352;2024-02-15T04:11:29;13.32;;;9.88;;
31043;SDS011;17710;52.520;13.352;2024-02-15T04:13:56;15.40;;;11.18;;
31043;SDS011;17710;52.520;13.352;2024-02-15T04:16:22;14.30;;;11.15;;
31043;SDS011;17710;52.520;13.352;2024-02-15T04:18:50;17.95;;;11.77;;
31043;SDS011;17710;52.520;13.352;2024-02-15T04:23:44;14.30;;;11.13;;
31043;SDS011;17710;52.520;13.352;2024-02-15T04:26:12;13.52;;;10.95;;
31043;SDS011;17710;52.520;13.352;2024-02-15T04:28:39;16.17;;;11.13;;
31043;SDS011;17710;52.520;13.352;2024-02-15T04:31:06;14.05;;;11.23;;
31043;SDS011;17710;52.520;13.352;2024-02-15T04:33:33;12.98;;;10.85;;
31043;SDS011;17710;52.520;13.352;2024-02-15T04:35:59;13.55;;;10.95;;
31043;SDS011;17710;52.520;13.352;2024-02-15T04:38:29;13.23;;;11.00;;
31043;SDS011;17710;52.520;13.352;2024-02-15T04:40:55;14.77;;;11.73;;
31043;SDS011;17710;52.520;13.352;2024-02-15T04:43:26;12.70;;;10.82;;
31043;SDS011;17710;52.520;13.352;2024-02-15T04:45:52;14.82;;;11.45;;
31043;SDS011;17710;52.520;13.352;2024-02-15T04:48:19;14.73;;;11.20;;
31043;SDS011;17710;52.520;13.352;2024-02-15T04:50:46;15.35;;;11.48;;
31043;SDS011;17710;52.520;13.352;2024-02-15T04:53:14;14.07;;;11.43;;
31043;SDS011;17710;52.520;13.352;2024-02-15T04:55:40;13.13;;;10.90;;
31043;SDS011;17710;52.520;13.352;2024-02-15T04:58:06;13.43;;;11.13;;
31043;SDS011;17710;52.520;13.352;2024-02-15T05:00:37;16.15;;;11.45;;
31043;SDS011;17710;52.520;13.352;2024-02-15T05:03:03;15.13;;;11.10;;
31043;SDS011;17710;52.520;13.352;2024-02-15T05:05:33;14.18;;;11.13;;
31043;SDS011;17710;52.520;13.352;2024-02-15T05:07:59;14.68;;;12.07;;
31043;SDS011;17710;52.520;13.352;2024-02-15T05:10:26;14.18;;;10.93;;
31043;SDS011;17710;52.520;13.352;2024-02-15T05:12:52;13.02;;;10.98;;
31043;SDS011;17710;52.520;13.352;2024-02-15T05:15:20;16.10;;;12.00;;
31043;SDS011;17710;52.520;13.352;2024-02-15T05:17:51;15.00;;;11.25;;
31043;SDS011;17710;52.520;13.352;2024-02-15T05:20:18;16.30;;;10.98;;
31043;SDS011;17710;52.520;13.352;2024-02-15T05:22:46;16.75;;;12.48;;
31043;SDS011;17710;52.520;13.352;2024-02-15T05:25:12;14.82;;;11.15;;
31043;SDS011;17710;52.520;13.352;2024-02-15T05:27:40;16.50;;;11.30;;
31043;SDS011;17710;52.520;13.352;2024-02-15T05:30:09;16.23;;;11.77;;
31043;SDS011;17710;52.520;13.352;2024-02-15T05:32:37;13.25;;;10.55;;
31043;SDS011;17710;52.520;13.352;2024-02-15T05:35:08;16.65;;;11.82;;
31043;SDS011;17710;52.520;13.352;2024-02-15T05:37:35;15.77;;;10.75;;
31043;SDS011;17710;52.520;13.352;2024-02-15T05:40:01;15.88;;;11.25;;
31043;SDS011;17710;52.520;13.352;2024-02-15T05:42:27;17.92;;;11.25;;
31043;SDS011;17710;52.520;13.352;2024-02-15T05:44:54;13.60;;;10.68;;
31043;SDS011;17710;52.520;13.352;2024-02-15T05:47:20;12.88;;;10.32;;
31043;SDS011;17710;52.520;13.352;2024-02-15T05:49:47;15.73;;;11.18;;
31043;SDS011;17710;52.520;13.352;2024-02-15T05:52:14;15.60;;;11.48;;
31043;SDS011;17710;52.520;13.352;2024-02-15T05:54:43;16.42;;;11.18;;
31043;SDS011;17710;52.520;13.352;2024-02-15T05:57:10;15.52;;;11.43;;
31043;SDS011;17710;52.520;13.352;2024-02-15T05:59:37;17.10;;;11.32;;
31043;SDS011;17710;52.520;13.352;2024-02-15T06:02:05;18.15;;;10.57;;
31043;SDS011;17710;52.520;13.352;2024-02-15T06:04:33;15.13;;;11.30;;
31043;SDS011;17710;52.520;13.352;2024-02-15T06:06:59;15.57;;;10.70;;
31043;SDS011;17710;52.520;13.352;2024-02-15T06:09:27;15.52;;;11.43;;
31043;SDS011;17710;52.520;13.352;2024-02-15T06:11:55;20.35;;;10.38;;
31043;SDS011;17710;52.520;13.352;2024-02-15T06:14:22;17.27;;;10.63;;
31043;SDS011;17710;52.520;13.352;2024-02-15T06:16:49;12.88;;;10.55;;
31043;SDS011;17710;52.520;13.352;2024-02-15T06:19:16;13.48;;;10.68;;
31043;SDS011;17710;52.520;13.352;2024-02-15T06:21:42;15.52;;;10.77;;
31043;SDS011;17710;52.520;13.352;2024-02-15T06:24:09;16.75;;;11.30;;
31043;SDS011;17710;52.520;13.352;2024-02-15T06:26:36;14.18;;;10.63;;
31043;SDS011;17710;52.520;13.352;2024-02-15T06:29:04;13.10;;;10.55;;
31043;SDS011;17710;52.520;13.352;2024-02-15T06:31:47;12.77;;;10.38;;
31043;SDS011;17710;52.520;13.352;2024-02-15T06:34:31;14.70;;;10.80;;
31043;SDS011;17710;52.520;13.352;2024-02-15T06:40:23;14.50;;;10.50;;
31043;SDS011;17710;52.520;13.352;2024-02-15T06:42:51;13.73;;;10.45;;
31043;SDS011;17710;52.520;13.352;2024-02-15T06:45:18;14.15;;;10.77;;
31043;SDS011;17710;52.520;13.352;2024-02-15T06:47:44;22.00;;;11.05;;
31043;SDS011;17710;52.520;13.352;2024-02-15T06:50:11;14.77;;;10.95;;
31043;SDS011;17710;52.520;13.352;2024-02-15T06:52:38;14.65;;;10.35;;
31043;SDS011;17710;52.520;13.352;2024-02-15T06:55:06;14.02;;;10.20;;
31043;SDS011;17710;52.520;13.352;2024-02-15T06:57:33;13.68;;;10.18;;
31043;SDS011;17710;52.520;13.352;2024-02-15T07:00:01;15.25;;;10.85;;
31043;SDS011;17710;52.520;13.352;2024-02-15T07:02:32;15.85;;;10.05;;
31043;SDS011;17710;52.520;13.352;2024-02-15T07:04:59;14.15;;;10.02;;
31043;SDS011;17710;52.520;13.352;2024-02-15T07:07:25;14.95;;;10.05;;
31043;SDS011;17710;52.520;13.352;2024-02-15T07:09:52;17.80;;;10.43;;
31043;SDS011;17710;52.520;13.352;2024-02-15T07:12:19;11.98;;;9.68;;
31043;SDS011;17710;52.520;13.352;2024-02-15T07:14:46;14.35;;;10.85;;
31043;SDS011;17710;52.520;13.352;2024-02-15T07:17:14;15.73;;;9.45;;
31043;SDS011;17710;52.520;13.352;2024-02-15T07:19:42;15.38;;;9.77;;
31043;SDS011;17710;52.520;13.352;2024-02-15T07:22:09;11.13;;;9.27;;
31043;SDS011;17710;52.520;13.352;2024-02-15T07:24:36;12.30;;;9.30;;
31043;SDS011;17710;52.520;13.352;2024-02-15T07:27:03;17.38;;;8.77;;
31043;SDS011;17710;52.520;13.352;2024-02-15T07:29:30;13.73;;;10.10;;
31043;SDS011;17710;52.520;13.352;2024-02-15T07:31:57;11.50;;;8.75;;
31043;SDS011;17710;52.520;13.352;2024-02-15T07:34:25;11.32;;;8.90;;
31043;SDS011;17710;52.520;13.352;2024-02-15T07:36:52;11.80;;;9.07;;
31043;SDS011;17710;52.520;13.352;2024-02-15T07:39:18;11.27;;;9.05;;
31043;SDS011;17710;52.520;13.352;2024-02-15T07:41:48;10.27;;;8.82;;
31043;SDS011;17710;52.520;13.352;2024-02-15T07:44:15;11.07;;;8.43;;
31043;SDS011;17710;52.520;13.352;2024-02-15T07:46:42;10.85;;;8.35;;
31043;SDS011;17710;52.520;13.352;2024-02-15T07:49:09;11.57;;;8.77;;
31043;SDS011;17710;52.520;13.352;2024-02-15T07:51:38;10.07;;;8.23;;
31043;SDS011;17710;52.520;13.352;2024-02-15T07:54:04;10.73;;;8.50;;
31043;SDS011;17710;52.520;13.352;2024-02-15T07:56:31;12.02;;;9.23;;
31043;SDS011;17710;52.520;13.352;2024-02-15T07:58:57;11.77;;;8.63;;
31043;SDS011;17710;52.520;13.352;2024-02-15T08:01:23;13.52;;;8.55;;
31043;SDS011;17710;52.520;13.352;2024-02-15T08:03:50;13.88;;;9.05;;
31043;SDS011;17710;52.520;13.352;2024-02-15T08:06:17;10.40;;;9.27;;
31043;SDS011;17710;52.520;13.352;2024-02-15T08:08:46;12.13;;;8.30;;
31043;SDS011;17710;52.520;13.352;2024-02-15T08:11:13;9.88;;;8.10;;
31043;SDS011;17710;52.520;13.352;2024-02-15T08:13:42;10.15;;;7.63;;
31043;SDS011;17710;52.520;13.352;2024-02-15T08:16:09;11.57;;;8.38;;
31043;SDS011;17710;52.520;13.352;2024-02-15T08:18:37;11.07;;;8.40;;
31043;SDS011;17710;52.520;13.352;2024-02-15T08:21:04;17.77;;;8.63;;
31043;SDS011;17710;52.520;13.352;2024-02-15T08:23:30;10.73;;;8.20;;
31043;SDS011;17710;52.520;13.352;2024-02-15T08:25:58;11.38;;;7.55;;
31043;SDS011;17710;52.520;13.352;2024-02-15T08:28:25;11.13;;;7.72;;
31043;SDS011;17710;52.520;13.352;2024-02-15T08:30:53;13.13;;;8.15;;
31043;SDS011;17710;52.520;13.352;2024-02-15T08:33:20;9.65;;;7.78;;
31043;SDS011;17710;52.520;13.352;2024-02-15T08:35:48;10.73;;;7.43;;
31043;SDS011;17710;52.520;13.352;2024-02-15T08:38:14;10.25;;;7.95;;
31043;SDS011;17710;52.520;13.352;2024-02-15T08:40:41;8.50;;;7.57;;
31043;SDS011;17710;52.520;13.352;2024-02-15T08:43:12;10.02;;;8.02;;
31043;SDS011;17710;52.520;13.352;2024-02-15T08:45:38;8.50;;;7.57;;
31043;SDS011;17710;52.520;13.352;2024-02-15T08:48:05;10.30;;;7.13;;
31043;SDS011;17710;52.520;13.352;2024-02-15T08:50:31;9.70;;;7.57;;
31043;SDS011;17710;52.520;13.352;2024-02-15T08:52:58;9.13;;;7.20;;
31043;SDS011;17710;52.520;13.352;2024-02-15T08:55:24;10.23;;;7.13;;
31043;SDS011;17710;52.520;13.352;2024-02-15T08:57:52;9.20;;;6.57;;
31043;SDS011;17710;52.520;13.352;2024-02-15T09:00:20;7.72;;;6.93;;
31043;SDS011;17710;52.520;13.352;2024-02-15T09:02:47;9.73;;;7.18;;
31043;SDS011;17710;52.520;13.352;2024-02-15T09:05:14;8.98;;;7.35;;
31043;SDS011;17710;52.520;13.352;2024-02-15T09:07:40;9.55;;;7.40;;
31043;SDS011;17710;52.520;13.352;2024-02-15T09:10:08;11.00;;;7.25;;
31043;SDS011;17710;52.520;13.352;2024-02-15T09:12:35;10.57;;;7.65;;
31043;SDS011;17710;52.520;13.352;2024-02-15T09:15:03;12.15;;;7.38;;
31043;SDS011;17710;52.520;13.352;2024-02-15T09:17:31;11.98;;;7.38;;
31043;SDS011;17710;52.520;13.352;2024-02-15T09:20:04;8.13;;;6.55;;
31043;SDS011;17710;52.520;13.352;2024-02-15T09:22:32;7.82;;;6.90;;
31043;SDS011;17710;52.520;13.352;2024-02-15T09:25:01;8.98;;;6.78;;
31043;SDS011;17710;52.520;13.352;2024-02-15T09:27:27;16.27;;;6.50;;
31043;SDS011;17710;52.520;13.352;2024-02-15T09:29:54;9.93;;;6.80;;
31043;SDS011;17710;52.520;13.352;2024-02-15T09:32:21;9.05;;;6.78;;
31043;SDS011;17710;52.520;13.352;2024-02-15T09:34:49;8.95;;;6.43;;
31043;SDS011;17710;52.520;13.352;2024-02-15T09:37:15;7.88;;;6.13;;
31043;SDS011;17710;52.520;13.352;2024-02-15T09:39:42;9.00;;;6.93;;
31043;SDS011;17710;52.520;13.352;2024-02-15T09:42:09;10.68;;;6.57;;
31043;SDS011;17710;52.520;13.352;2024-02-15T09:44:35;10.95;;;6.82;;
31043;SDS011;17710;52.520;13.352;2024-02-15T09:47:03;10.50;;;6.35;;
31043;SDS011;17710;52.520;13.352;2024-02-15T09:49:33;6.85;;;5.72;;
31043;SDS011;17710;52.520;13.352;2024-02-15T09:52:03;7.65;;;6.15;;
31043;SDS011;17710;52.520;13.352;2024-02-15T09:54:30;7.50;;;6.15;;
31043;SDS011;17710;52.520;13.352;2024-02-15T09:56:59;21.45;;;6.65;;
31043;SDS011;17710;52.520;13.352;2024-02-15T09:59:27;10.02;;;6.10;;
31043;SDS011;17710;52.520;13.352;2024-02-15T10:01:54;10.70;;;6.38;;
31043;SDS011;17710;52.520;13.352;2024-02-15T10:04:24;7.18;;;6.07;;
31043;SDS011;17710;52.520;13.352;2024-02-15T10:06:51;7.18;;;5.80;;
31043;SDS011;17710;52.520;13.352;2024-02-15T10:09:25;10.18;;;5.80;;
31043;SDS011;17710;52.520;13.352;2024-02-15T10:11:55;7.90;;;6.20;;
31043;SDS011;17710;52.520;13.352;2024-02-15T10:14:23;6.00;;;5.35;;
31043;SDS011;17710;52.520;13.352;2024-02-15T10:16:50;10.13;;;6.07;;
31043;SDS011;17710;52.520;13.352;2024-02-15T10:19:18;6.25;;;5.38;;
31043;SDS011;17710;52.520;13.352;2024-02-15T10:21:50;5.95;;;5.35;;
31043;SDS011;17710;52.520;13.352;2024-02-15T10:24:18;7.15;;;4.97;;
31043;SDS011;17710;52.520;13.352;2024-02-15T10:26:46;7.35;;;5.25;;
31043;SDS011;17710;52.520;13.352;2024-02-15T10:29:14;9.52;;;5.20;;
31043;SDS011;17710;52.520;13.352;2024-02-15T10:31:51;6.22;;;5.15;;
31043;SDS011;17710;52.520;13.352;2024-02-15T10:34:19;6.82;;;5.13;;
31043;SDS011;17710;52.520;13.352;2024-02-15T10:36:46;5.95;;;5.15;;
31043;SDS011;17710;52.520;13.352;2024-02-15T10:39:13;7.15;;;4.97;;
31043;SDS011;17710;52.520;13.352;2024-02-15T10:41:45;7.07;;;4.60;;
31043;SDS011;17710;52.520;13.352;2024-02-15T10:44:14;10.25;;;4.57;;
31043;SDS011;17710;52.520;13.352;2024-02-15T10:46:44;5.43;;;4.57;;
31043;SDS011;17710;52.520;13.352;2024-02-15T10:49:15;6.10;;;3.97;;
31043;SDS011;17710;52.520;13.352;2024-02-15T10:51:43;4.97;;;4.43;;
31043;SDS011;17710;52.520;13.352;2024-02-15T10:54:12;7.80;;;3.83;;
31043;SDS011;17710;52.520;13.352;2024-02-15T10:56:42;5.18;;;4.28;;
31043;SDS011;17710;52.520;13.352;2024-02-15T10:59:16;5.18;;;3.90;;
31043;SDS011;17710;52.520;13.352;2024-02-15T11:01:43;4.03;;;3.47;;
31043;SDS011;17710;52.520;13.352;2024-02-15T11:04:12;5.78;;;3.53;;
31043;SDS011;17710;52.520;13.352;2024-02-15T11:06:42;3.20;;;2.90;;
31043;SDS011;17710;52.520;13.352;2024-02-15T11:09:09;7.13;;;3.60;;
31043;SDS011;17710;52.520;13.352;2024-02-15T11:11:38;4.75;;;3.30;;
31043;SDS011;17710;52.520;13.352;2024-02-15T11:14:26;3.78;;;3.45;;
31043;SDS011;17710;52.520;13.352;2024-02-15T11:16:53;6.03;;;3.38;;
31043;SDS011;17710;52.520;13.352;2024-02-15T11:22:12;4.97;;;2.70;;
31043;SDS011;17710;52.520;13.352;2024-02-15T11:24:45;4.43;;;3.30;;
31043;SDS011;17710;52.520;13.352;2024-02-15T11:27:12;3.47;;;2.80;;
31043;SDS011;17710;52.520;13.352;2024-02-15T11:29:52;3.55;;;3.00;;
31043;SDS011;17710;52.520;13.352;2024-02-15T11:32:36;3.88;;;2.95;;
31043;SDS011;17710;52.520;13.352;2024-02-15T11:35:04;3.90;;;2.88;;
31043;SDS011;17710;52.520;13.352;2024-02-15T11:43:46;6.53;;;3.33;;
31043;SDS011;17710;52.520;13.352;2024-02-15T11:46:24;3.75;;;2.60;;
31043;SDS011;17710;52.520;13.352;2024-02-15T11:48:55;2.97;;;2.75;;
31043;SDS011;17710;52.520;13.352;2024-02-15T11:51:28;4.85;;;3.33;;
31043;SDS011;17710;52.520;13.352;2024-02-15T11:54:00;3.97;;;2.78;;
31043;SDS011;17710;52.520;13.352;2024-02-15T11:56:32;5.80;;;3.37;;
31043;SDS011;17710;52.520;13.352;2024-02-15T11:59:02;3.35;;;2.78;;
31043;SDS011;17710;52.520;13.352;2024-02-15T12:01:32;4.07;;;2.75;;
31043;SDS011;17710;52.520;13.352;2024-02-15T12:04:18;3.90;;;3.40;;
31043;SDS011;17710;52.520;13.352;2024-02-15T12:07:02;8.80;;;5.10;;
31043;SDS011;17710;52.520;13.352;2024-02-15T12:09:46;4.28;;;3.20;;
31043;SDS011;17710;52.520;13.352;2024-02-15T12:12:30;5.32;;;3.65;;
31043;SDS011;17710;52.520;13.352;2024-02-15T12:15:14;5.22;;;3.20;;
31043;SDS011;17710;52.520;13.352;2024-02-15T12:20:59;4.20;;;3.30;;
31043;SDS011;17710;52.520;13.352;2024-02-15T12:23:27;5.68;;;3.13;;
31043;SDS011;17710;52.520;13.352;2024-02-15T12:25:55;6.75;;;2.97;;
31043;SDS011;17710;52.520;13.352;2024-02-15T12:28:22;4.55;;;2.97;;
31043;SDS011;17710;52.520;13.352;2024-02-15T12:30:53;5.72;;;2.85;;
31043;SDS011;17710;52.520;13.352;2024-02-15T12:33:22;3.95;;;2.25;;
31043;SDS011;17710;52.520;13.352;2024-02-15T12:35:49;12.82;;;3.17;;
31043;SDS011;17710;52.520;13.352;2024-02-15T12:38:16;7.32;;;2.53;;
31043;SDS011;17710;52.520;13.352;2024-02-15T12:40:43;4.43;;;2.10;;
31043;SDS011;17710;52.520;13.352;2024-02-15T12:43:10;3.33;;;2.67;;
31043;SDS011;17710;52.520;13.352;2024-02-15T12:45:37;3.92;;;2.53;;
31043;SDS011;17710;52.520;13.352;2024-02-15T12:48:05;3.63;;;2.25;;
31043;SDS011;17710;52.520;13.352;2024-02-15T12:50:36;3.17;;;1.92;;
31043;SDS011;17710;52.520;13.352;2024-02-15T12:53:03;4.70;;;2.05;;
31043;SDS011;17710;52.520;13.352;2024-02-15T12:55:31;3.78;;;2.17;;
31043;SDS011;17710;52.520;13.352;2024-02-15T12:57:59;6.22;;;1.70;;
31043;SDS011;17710;52.520;13.352;2024-02-15T13:00:29;2.78;;;2.00;;
31043;SDS011;17710;52.520;13.352;2024-02-15T13:02:59;3.28;;;1.65;;
31043;SDS011;17710;52.520;13.352;2024-02-15T13:05:28;4.10;;;1.85;;
31043;SDS011;17710;52.520;13.352;2024-02-15T13:07:57;4.00;;;1.92;;
31043;SDS011;17710;52.520;13.352;2024-02-15T13:10:27;3.03;;;2.03;;
31043;SDS011;17710;52.520;13.352;2024-02-15T13:12:55;3.42;;;1.77;;
31043;SDS011;17710;52.520;13.352;2024-02-15T13:15:22;2.80;;;1.90;;
31043;SDS011;17710;52.520;13.352;2024-02-15T13:17:52;4.22;;;2.13;;
31043;SDS011;17710;52.520;13.352;2024-02-15T13:20:20;7.53;;;2.20;;
31043;SDS011;17710;52.520;13.352;2024-02-15T13:22:58;5.57;;;2.33;;
31043;SDS011;17710;52.520;13.352;2024-02-15T13:25:34;2.85;;;2.10;;
31043;SDS011;17710;52.520;13.352;2024-02-15T13:28:02;3.17;;;1.92;;
31043;SDS011;17710;52.520;13.352;2024-02-15T13:30:29;2.92;;;2.25;;
31043;SDS011;17710;52.520;13.352;2024-02-15T13:32:56;4.28;;;2.00;;
31043;SDS011;17710;52.520;13.352;2024-02-15T13:35:23;2.65;;;1.92;;
31043;SDS011;17710;52.520;13.352;2024-02-15T13:37:49;3.35;;;2.60;;
31043;SDS011;17710;52.520;13.352;2024-02-15T13:40:20;3.03;;;2.67;;
31043;SDS011;17710;52.520;13.352;2024-02-15T13:42:49;4.57;;;2.53;;
31043;SDS011;17710;52.520;13.352;2024-02-15T13:45:18;6.20;;;2.70;;
31043;SDS011;17710;52.520;13.352;2024-02-15T13:47:47;5.13;;;2.33;;
31043;SDS011;17710;52.520;13.352;2024-02-15T13:50:14;5.82;;;2.30;;
31043;SDS011;17710;52.520;13.352;2024-02-15T13:52:42;3.42;;;2.60;;
31043;SDS011;17710;52.520;13.352;2024-02-15T13:55:09;8.82;;;2.42;;
31043;SDS011;17710;52.520;13.352;2024-02-15T13:57:38;5.57;;;2.38;;
31043;SDS011;17710;52.520;13.352;2024-02-15T14:00:06;4.15;;;2.38;;
31043;SDS011;17710;52.520;13.352;2024-02-15T14:02:38;5.75;;;2.38;;
31043;SDS011;17710;52.520;13.352;2024-02-15T14:05:05;3.25;;;2.38;;
31043;SDS011;17710;52.520;13.352;2024-02-15T14:07:33;7.13;;;2.60;;
31043;SDS011;17710;52.520;13.352;2024-02-15T14:10:00;4.07;;;1.73;;
31043;SDS011;17710;52.520;13.352;2024-02-15T14:12:27;4.63;;;2.40;;
31043;SDS011;17710;52.520;13.352;2024-02-15T14:14:55;6.68;;;2.83;;
31043;SDS011;17710;52.520;13.352;2024-02-15T14:17:22;4.72;;;2.50;;
31043;SDS011;17710;52.520;13.352;2024-02-15T14:19:48;3.67;;;2.50;;
31043;SDS011;17710;52.520;13.352;2024-02-15T14:22:15;3.70;;;2.60;;
31043;SDS011;17710;52.520;13.352;2024-02-15T14:24:41;4.18;;;2.13;;
31043;SDS011;17710;52.520;13.352;2024-02-15T14:27:08;5.13;;;2.42;;
31043;SDS011;17710;52.520;13.352;2024-02-15T14:29:35;3.05;;;2.40;;
31043;SDS011;17710;52.520;13.352;2024-02-15T14:32:03;4.70;;;2.20;;
31043;SDS011;17710;52.520;13.352;2024-02-15T14:34:48;5.53;;;2.60;;
31043;SDS011;17710;52.520;13.352;2024-02-15T14:37:14;19.38;;;3.65;;
31043;SDS011;17710;52.520;13.352;2024-02-15T14:39:42;3.83;;;2.45;;
31043;SDS011;17710;52.520;13.352;2024-02-15T14:42:08;5.57;;;2.70;;
31043;SDS011;17710;52.520;13.352;2024-02-15T14:44:37;9.07;;;2.20;;
31043;SDS011;17710;52.520;13.352;2024-02-15T14:47:05;4.43;;;2.22;;